createdAt,value
2017-12-01T00:02:11.586Z,16.63
2017-12-01T00:04:37.933Z,20.70
2017-12-01T00:07:04.368Z,20.67
2017-12-01T00:09:30.802Z,16.10
2017-12-01T00:11:57.240Z,17.60
2017-12-01T00:14:24.390Z,16.50
2017-12-01T00:16:50.826Z,14.77
2017-12-01T00:19:17.138Z,27.03
2017-12-01T00:21:43.577Z,16.90
2017-12-01T00:24:10.129Z,19.30
2017-12-01T00:26:36.563Z,17.53
2017-12-01T00:29:02.928Z,19.83
2017-12-01T00:31:30.148Z,19.40
2017-12-01T00:33:56.582Z,24.33
2017-12-01T00:36:23.016Z,22.50
2017-12-01T00:38:49.347Z,18.93
2017-12-01T00:41:15.783Z,26.93
2017-12-01T00:43:42.225Z,17.87
2017-12-01T00:46:08.755Z,30.07
2017-12-01T00:48:35.810Z,15.23
2017-12-01T00:51:02.238Z,16.67
2017-12-01T00:53:28.672Z,15.93
2017-12-01T00:55:55.109Z,22.20
2017-12-01T00:58:21.440Z,18.10
2017-12-01T01:00:47.772Z,19.97
2017-12-01T01:03:14.206Z,19.10
2017-12-01T01:05:41.461Z,12.57
2017-12-01T01:08:07.792Z,20.17
2017-12-01T01:10:34.329Z,12.53
2017-12-01T01:13:00.695Z,12.70
2017-12-01T01:15:27.097Z,20.00
2017-12-01T01:17:53.531Z,18.03
2017-12-01T01:20:19.864Z,16.83
2017-12-01T01:22:47.090Z,14.30
2017-12-01T01:25:13.551Z,23.60
2017-12-01T01:27:39.986Z,19.33
2017-12-01T01:30:06.523Z,15.90
2017-12-01T01:32:32.852Z,23.03
2017-12-01T01:34:59.290Z,16.90
2017-12-01T01:37:25.644Z,18.17
2017-12-01T01:39:52.875Z,18.20
2017-12-01T01:42:19.310Z,31.80
2017-12-01T01:44:45.748Z,27.60
2017-12-01T01:47:12.180Z,30.87
2017-12-01T01:49:38.614Z,28.03
2017-12-01T01:52:05.048Z,32.70
2017-12-01T01:54:31.506Z,41.70
2017-12-01T01:56:58.652Z,38.27
2017-12-01T01:59:25.071Z,41.10
2017-12-01T02:01:51.401Z,39.97
2017-12-01T02:04:17.855Z,46.23
2017-12-01T02:06:44.271Z,38.40
2017-12-01T02:09:10.705Z,44.50
2017-12-01T02:11:37.101Z,44.30
2017-12-01T02:14:04.292Z,41.70
2017-12-01T02:16:30.728Z,44.67
2017-12-01T02:18:57.094Z,44.03
2017-12-01T02:21:23.494Z,47.40
2017-12-01T02:23:49.824Z,47.97
2017-12-01T02:26:16.260Z,44.43
2017-12-01T02:28:42.683Z,44.80
2017-12-01T02:31:09.827Z,44.20
2017-12-01T02:33:36.268Z,47.07
2017-12-01T02:36:02.716Z,48.00
2017-12-01T02:38:29.150Z,48.00
2017-12-01T02:40:55.585Z,51.40
2017-12-01T02:43:22.018Z,53.17
2017-12-01T02:45:48.390Z,50.40
2017-12-01T02:48:15.707Z,51.60
2017-12-01T02:50:42.142Z,51.73
2017-12-01T02:53:08.596Z,57.10
2017-12-01T02:55:35.012Z,52.87
2017-12-01T02:58:01.445Z,53.20
2017-12-01T03:00:27.759Z,51.30
2017-12-01T03:02:54.178Z,55.20
2017-12-01T03:05:21.344Z,55.20
2017-12-01T03:07:47.812Z,56.20
2017-12-01T03:10:14.254Z,58.90
2017-12-01T03:12:40.668Z,54.97
2017-12-01T03:15:07.145Z,54.87
2017-12-01T03:17:33.579Z,58.57
2017-12-01T03:20:00.048Z,54.97
2017-12-01T03:22:27.349Z,61.60
2017-12-01T03:24:53.763Z,57.43
2017-12-01T03:27:20.197Z,60.90
2017-12-01T03:29:46.632Z,58.63
2017-12-01T03:32:13.067Z,55.73
2017-12-01T03:34:39.501Z,57.90
2017-12-01T03:37:05.936Z,58.20
2017-12-01T03:39:33.088Z,52.77
2017-12-01T03:41:59.459Z,60.67
2017-12-01T03:44:25.818Z,56.70
2017-12-01T03:46:52.259Z,59.07
2017-12-01T03:49:18.702Z,55.90
2017-12-01T03:51:45.092Z,58.33
2017-12-01T03:54:11.490Z,52.93
2017-12-01T03:56:38.744Z,57.40
2017-12-01T03:59:05.281Z,63.23
2017-12-01T04:01:31.715Z,59.73
2017-12-01T04:03:58.150Z,60.87
2017-12-01T04:06:24.584Z,56.50
2017-12-01T04:08:50.914Z,52.37
2017-12-01T04:11:17.352Z,60.20
2017-12-01T04:13:44.608Z,56.37
2017-12-01T04:16:10.972Z,60.13
2017-12-01T04:18:37.376Z,52.37
2017-12-01T04:21:03.807Z,60.40
2017-12-01T04:23:30.241Z,53.90
2017-12-01T04:25:56.660Z,58.00
2017-12-01T04:28:23.103Z,58.00
2017-12-01T04:30:50.264Z,58.40
2017-12-01T04:33:16.696Z,62.33
2017-12-01T04:35:43.132Z,67.10
2017-12-01T04:38:09.566Z,57.83
2017-12-01T04:40:35.932Z,58.27
2017-12-01T04:43:02.333Z,54.17
2017-12-01T04:45:28.776Z,63.17
2017-12-01T04:47:55.815Z,60.97
2017-12-01T04:50:22.250Z,58.27
2017-12-01T04:52:48.686Z,58.40
2017-12-01T04:55:15.122Z,57.47
2017-12-01T04:57:41.555Z,62.27
2017-12-01T05:00:07.992Z,58.43
2017-12-01T05:02:34.426Z,60.73
2017-12-01T05:05:01.515Z,61.07
2017-12-01T05:07:27.874Z,53.17
2017-12-01T05:09:54.340Z,53.87
2017-12-01T05:12:20.780Z,51.77
2017-12-01T05:14:47.214Z,56.63
2017-12-01T05:17:13.648Z,54.27
2017-12-01T05:19:40.084Z,55.47
2017-12-01T05:22:07.335Z,54.27
2017-12-01T05:24:33.667Z,58.03
2017-12-01T05:27:00.106Z,55.83
2017-12-01T05:29:26.538Z,56.73
2017-12-01T05:31:52.973Z,57.87
2017-12-01T05:34:19.408Z,46.60
2017-12-01T05:36:45.842Z,60.93
2017-12-01T05:39:12.993Z,59.50
2017-12-01T05:41:39.427Z,55.47
2017-12-01T05:44:05.861Z,54.60
2017-12-01T05:46:32.347Z,59.63
2017-12-01T05:48:58.750Z,53.90
2017-12-01T05:51:25.095Z,60.33
2017-12-01T05:53:51.496Z,52.73
2017-12-01T05:56:18.697Z,55.87
2017-12-01T05:58:45.083Z,269.73
2017-12-01T06:01:11.517Z,54.43
2017-12-01T06:03:37.951Z,81.33
2017-12-01T06:06:04.569Z,62.47
2017-12-01T06:08:31.003Z,99.03
2017-12-01T06:10:57.461Z,58.47
2017-12-01T06:13:23.897Z,70.17
2017-12-01T06:15:50.330Z,63.50
2017-12-01T06:18:16.693Z,77.70
2017-12-01T06:20:43.097Z,318.07
2017-12-01T06:23:09.859Z,106.10
2017-12-01T06:25:36.273Z,163.83
2017-12-01T06:28:02.710Z,62.20
2017-12-01T06:30:29.150Z,57.57
2017-12-01T06:32:55.576Z,52.57
2017-12-01T06:35:22.012Z,52.53
2017-12-01T06:37:48.336Z,80.33
2017-12-01T06:40:14.779Z,57.83
2017-12-01T06:42:41.423Z,232.77
2017-12-01T06:45:07.852Z,58.40
2017-12-01T06:47:34.287Z,57.37
2017-12-01T06:50:00.825Z,66.90
2017-12-01T06:52:27.221Z,50.00
2017-12-01T06:54:54.001Z,59.13
2017-12-01T06:57:20.435Z,53.00
2017-12-01T06:59:46.873Z,52.60
2017-12-01T07:02:13.411Z,50.10
2017-12-01T07:04:39.841Z,59.93
2017-12-01T07:07:06.277Z,50.77
2017-12-01T07:09:32.712Z,54.90
2017-12-01T07:11:59.043Z,81.13
2017-12-01T07:16:56.865Z,61.50
2017-12-01T07:19:23.192Z,54.43
2017-12-01T07:21:49.594Z,64.67
2017-12-01T07:24:16.066Z,58.47
2017-12-01T07:26:42.874Z,65.80
2017-12-01T07:29:09.308Z,54.80
2017-12-01T07:31:35.619Z,56.40
2017-12-01T07:34:02.074Z,51.80
2017-12-01T07:36:28.472Z,49.40
2017-12-01T07:38:54.841Z,48.53
2017-12-01T07:41:21.204Z,50.50
2017-12-01T07:43:47.711Z,51.17
2017-12-01T07:46:14.267Z,52.20
2017-12-01T07:48:40.682Z,46.30
2017-12-01T07:51:06.999Z,46.37
2017-12-01T07:53:33.449Z,49.63
2017-12-01T07:55:59.884Z,49.53
2017-12-01T07:58:27.138Z,46.63
2017-12-01T08:00:53.799Z,57.10
2017-12-01T08:03:20.214Z,65.03
2017-12-01T08:05:46.964Z,54.83
2017-12-01T08:08:13.388Z,51.70
2017-12-01T08:10:39.831Z,47.90
2017-12-01T08:13:06.257Z,52.20
2017-12-01T08:15:32.795Z,49.07
2017-12-01T08:17:59.160Z,47.70
2017-12-01T08:20:25.568Z,53.67
2017-12-01T08:22:52.199Z,55.17
2017-12-01T08:25:18.737Z,58.30
2017-12-01T08:27:45.203Z,54.80
2017-12-01T08:30:11.538Z,55.07
2017-12-01T08:32:37.939Z,47.00
2017-12-01T08:35:04.622Z,54.33
2017-12-01T08:37:31.120Z,46.20
2017-12-01T08:39:57.551Z,53.10
2017-12-01T08:42:23.882Z,50.00
2017-12-01T08:44:50.421Z,53.40
2017-12-01T08:47:16.856Z,58.30
2017-12-01T08:49:43.360Z,46.60
2017-12-01T08:52:10.581Z,51.43
2017-12-01T08:54:36.926Z,47.43
2017-12-01T08:57:03.309Z,49.43
2017-12-01T08:59:29.744Z,51.57
2017-12-01T09:01:56.184Z,50.53
2017-12-01T09:04:22.749Z,51.47
2017-12-01T09:06:49.151Z,52.00
2017-12-01T09:09:15.690Z,53.00
2017-12-01T09:11:42.122Z,46.30
2017-12-01T09:14:08.806Z,51.87
2017-12-01T09:16:35.130Z,46.27
2017-12-01T09:19:01.839Z,46.43
2017-12-01T09:21:28.326Z,52.63
2017-12-01T09:23:55.013Z,51.00
2017-12-01T09:26:21.446Z,41.97
2017-12-01T09:28:47.887Z,51.03
2017-12-01T09:31:14.827Z,57.87
2017-12-01T09:33:41.474Z,46.53
2017-12-01T09:36:08.037Z,54.10
2017-12-01T09:38:34.415Z,48.13
2017-12-01T09:41:00.874Z,51.00
2017-12-01T09:43:27.307Z,49.97
2017-12-01T09:45:54.160Z,52.30
2017-12-01T09:48:20.895Z,50.73
2017-12-01T09:50:47.329Z,56.43
2017-12-01T09:53:14.180Z,88.13
2017-12-01T09:55:40.608Z,45.80
2017-12-01T09:58:07.029Z,43.50
2017-12-01T10:00:33.477Z,50.30
2017-12-01T10:02:59.780Z,44.87
2017-12-01T10:05:26.644Z,43.03
2017-12-01T10:07:53.092Z,47.10
2017-12-01T10:10:19.473Z,46.47
2017-12-01T10:12:46.475Z,45.83
2017-12-01T10:15:13.111Z,50.97
2017-12-01T10:17:39.682Z,41.47
2017-12-01T10:20:06.202Z,42.00
2017-12-01T10:22:32.697Z,39.50
2017-12-01T10:24:59.686Z,40.90
2017-12-01T10:27:26.372Z,41.30
2017-12-01T10:29:52.815Z,39.33
2017-12-01T10:32:19.657Z,42.77
2017-12-01T10:34:46.124Z,44.33
2017-12-01T10:37:12.559Z,41.10
2017-12-01T10:39:38.993Z,40.10
2017-12-01T10:42:05.427Z,39.17
2017-12-01T10:44:31.893Z,59.53
2017-12-01T10:46:58.296Z,41.93
2017-12-01T10:49:25.530Z,45.03
2017-12-01T10:51:51.881Z,39.47
2017-12-01T10:54:18.349Z,39.53
2017-12-01T10:56:44.752Z,50.10
2017-12-01T10:59:11.287Z,51.70
2017-12-01T11:01:37.757Z,42.33
2017-12-01T11:04:04.428Z,59.90
2017-12-01T11:06:31.100Z,70.57
2017-12-01T11:08:57.840Z,50.63
2017-12-01T11:11:24.750Z,58.57
2017-12-01T11:13:51.805Z,43.03
2017-12-01T11:16:18.584Z,55.13
2017-12-01T11:18:45.689Z,51.07
2017-12-01T11:21:12.271Z,74.50
2017-12-01T11:23:38.705Z,133.30
2017-12-01T11:26:05.180Z,43.23
2017-12-01T11:28:31.554Z,54.27
2017-12-01T11:30:58.627Z,39.93
2017-12-01T11:33:25.060Z,44.87
2017-12-01T11:35:51.596Z,42.87
2017-12-01T11:38:19.157Z,39.60
2017-12-01T11:40:45.592Z,40.60
2017-12-01T11:43:12.232Z,43.67
2017-12-01T11:45:38.768Z,47.93
2017-12-01T11:48:05.305Z,43.70
2017-12-01T11:50:31.739Z,47.10
2017-12-01T11:52:58.281Z,42.23
2017-12-01T11:55:24.814Z,41.93
2017-12-01T11:57:51.181Z,47.97
2017-12-01T12:00:17.512Z,49.67
2017-12-01T12:02:45.040Z,44.53
2017-12-01T12:05:11.576Z,50.97
2017-12-01T12:07:38.011Z,47.70
2017-12-01T12:10:04.446Z,53.03
2017-12-01T12:12:30.885Z,71.03
2017-12-01T12:14:57.425Z,61.20
2017-12-01T12:17:23.898Z,60.07
2017-12-01T12:19:50.288Z,56.70
2017-12-01T12:22:17.133Z,57.80
2017-12-01T12:24:43.565Z,57.97
2017-12-01T12:27:10.001Z,63.57
2017-12-01T12:29:36.434Z,76.77
2017-12-01T12:32:02.869Z,61.47
2017-12-01T12:34:29.406Z,72.63
2017-12-01T12:36:55.840Z,69.70
2017-12-01T12:39:22.215Z,77.70
2017-12-01T12:41:48.607Z,82.20
2017-12-01T12:44:15.759Z,78.37
2017-12-01T12:46:42.603Z,68.93
2017-12-01T12:49:09.045Z,72.40
2017-12-01T12:51:35.471Z,79.87
2017-12-01T12:54:01.840Z,79.10
2017-12-01T12:56:29.569Z,79.90
2017-12-01T12:58:58.352Z,87.93
2017-12-01T13:01:24.896Z,74.43
2017-12-01T13:03:51.204Z,92.23
2017-12-01T13:06:17.663Z,503.63
2017-12-01T13:08:44.098Z,686.40
2017-12-01T13:11:10.840Z,184.37
2017-12-01T13:13:37.275Z,92.37
2017-12-01T13:16:03.828Z,76.33
2017-12-01T13:18:30.328Z,80.50
2017-12-01T13:20:58.436Z,74.70
2017-12-01T13:23:25.063Z,71.20
2017-12-01T13:25:51.599Z,80.03
2017-12-01T13:28:18.083Z,80.33
2017-12-01T13:30:44.864Z,85.90
2017-12-01T13:33:12.347Z,85.70
2017-12-01T13:35:38.949Z,79.40
2017-12-01T13:38:06.638Z,74.03
2017-12-01T13:40:33.380Z,82.80
2017-12-01T13:43:00.126Z,88.23
2017-12-01T13:45:26.650Z,77.10
2017-12-01T13:47:53.196Z,81.47
2017-12-01T13:50:20.554Z,86.17
2017-12-01T13:52:47.090Z,104.90
2017-12-01T13:55:13.628Z,93.40
2017-12-01T13:57:40.368Z,92.33
2017-12-01T14:00:06.907Z,88.43
2017-12-01T14:02:33.442Z,94.23
2017-12-01T14:04:59.981Z,89.63
2017-12-01T14:07:27.029Z,87.10
2017-12-01T14:09:53.463Z,99.07
2017-12-01T14:12:20.007Z,118.73
2017-12-01T14:14:46.947Z,100.90
2017-12-01T14:17:13.388Z,135.40
2017-12-01T14:19:39.716Z,120.70
2017-12-01T14:22:06.765Z,118.93
2017-12-01T14:24:33.300Z,114.43
2017-12-01T14:26:59.735Z,125.03
2017-12-01T14:29:26.169Z,127.10
2017-12-01T14:31:52.708Z,116.83
2017-12-01T14:34:19.755Z,97.13
2017-12-01T14:36:46.291Z,121.13
2017-12-01T14:39:12.726Z,88.73
2017-12-01T14:41:39.097Z,89.77
2017-12-01T14:44:05.596Z,93.10
2017-12-01T14:46:32.274Z,76.60
2017-12-01T14:48:58.965Z,80.13
2017-12-01T14:51:25.515Z,71.67
2017-12-01T14:53:51.949Z,76.20
2017-12-01T14:56:18.416Z,74.17
2017-12-01T14:58:45.098Z,74.50
2017-12-01T15:01:11.560Z,84.40
2017-12-01T15:03:38.302Z,91.90
2017-12-01T15:06:04.841Z,97.73
2017-12-01T15:08:31.273Z,99.17
2017-12-01T15:10:57.708Z,86.07
2017-12-01T15:13:24.113Z,84.47
2017-12-01T15:15:50.578Z,90.73
2017-12-01T15:18:17.030Z,99.37
2017-12-01T15:20:43.446Z,93.30
2017-12-01T15:23:09.780Z,122.80
2017-12-01T15:25:36.322Z,100.13
2017-12-01T15:28:02.750Z,125.20
2017-12-01T15:30:29.123Z,125.60
2017-12-01T15:32:55.517Z,113.03
2017-12-01T15:35:22.058Z,119.60
2017-12-01T15:37:48.492Z,108.37
2017-12-01T15:40:14.926Z,113.77
2017-12-01T15:42:41.462Z,109.10
2017-12-01T15:45:08.306Z,116.37
2017-12-01T15:47:34.756Z,118.67
2017-12-01T15:50:01.312Z,114.83
2017-12-01T15:52:27.714Z,135.90
2017-12-01T15:54:54.150Z,242.37
2017-12-01T15:57:20.584Z,116.73
2017-12-01T15:59:47.017Z,134.17
2017-12-01T16:02:13.451Z,146.33
2017-12-01T16:04:39.885Z,119.60
2017-12-01T16:07:06.832Z,141.20
2017-12-01T16:09:33.266Z,139.23
2017-12-01T16:14:41.946Z,119.27
2017-12-01T16:19:40.509Z,114.07
2017-12-01T16:22:06.864Z,113.67
2017-12-01T16:24:33.220Z,126.67
2017-12-01T16:26:59.663Z,118.90
2017-12-01T16:29:26.105Z,128.07
2017-12-01T16:31:52.554Z,124.00
2017-12-01T16:34:18.990Z,124.77
2017-12-01T16:36:45.422Z,119.47
2017-12-01T16:39:11.857Z,114.90
2017-12-01T16:41:38.226Z,100.53
2017-12-01T16:44:04.622Z,102.97
2017-12-01T16:46:31.059Z,105.60
2017-12-01T16:48:57.426Z,95.03
2017-12-01T16:51:23.830Z,76.03
2017-12-01T16:53:50.258Z,99.93
2017-12-01T16:56:16.782Z,101.47
2017-12-01T16:58:43.233Z,88.83
2017-12-01T17:01:09.674Z,70.23
2017-12-01T17:03:36.921Z,81.03
2017-12-01T17:06:03.284Z,91.60
2017-12-01T17:08:29.686Z,91.83
2017-12-01T17:10:56.120Z,89.03
2017-12-01T17:13:22.559Z,54.40
2017-12-01T17:15:48.992Z,59.10
2017-12-01T17:18:15.433Z,53.47
2017-12-01T17:20:42.577Z,62.63
2017-12-01T17:23:09.012Z,53.77
2017-12-01T17:25:35.447Z,41.70
2017-12-01T17:28:01.899Z,39.07
2017-12-01T17:30:28.416Z,40.23
2017-12-01T17:32:54.871Z,45.90
2017-12-01T17:35:21.287Z,41.80
2017-12-01T17:40:21.053Z,42.23
2017-12-01T17:42:47.387Z,43.80
2017-12-01T17:45:13.783Z,40.30
2017-12-01T17:47:40.121Z,41.27
2017-12-01T17:50:06.550Z,51.07
2017-12-01T17:52:33.003Z,38.43
2017-12-01T17:54:59.440Z,46.37
2017-12-01T17:57:25.854Z,48.03
2017-12-01T17:59:52.288Z,49.90
2017-12-01T18:02:18.654Z,49.33
2017-12-01T18:04:45.102Z,48.93
2017-12-01T18:07:11.409Z,48.70
2017-12-01T18:09:37.842Z,48.03
2017-12-01T18:12:04.263Z,45.90
2017-12-01T18:14:30.692Z,42.53
2017-12-01T18:16:57.125Z,37.90
2017-12-01T18:19:23.432Z,37.50
2017-12-01T18:21:50.814Z,29.50
2017-12-01T18:24:17.246Z,34.30
2017-12-01T18:26:43.735Z,35.80
2017-12-01T18:29:10.118Z,29.33
2017-12-01T18:31:36.552Z,30.87
2017-12-01T18:34:02.988Z,28.70
2017-12-01T18:36:29.423Z,28.40
2017-12-01T18:38:56.576Z,29.57
2017-12-01T18:41:23.007Z,29.50
2017-12-01T18:43:49.339Z,33.53
2017-12-01T18:46:15.775Z,36.10
2017-12-01T18:48:42.317Z,36.70
2017-12-01T18:51:08.746Z,30.90
2017-12-01T18:53:35.183Z,27.40
2017-12-01T18:56:02.435Z,29.40
2017-12-01T18:58:28.870Z,29.40
2017-12-01T19:00:55.202Z,30.47
2017-12-01T19:03:21.636Z,31.10
2017-12-01T19:05:48.071Z,31.67
2017-12-01T19:08:14.505Z,32.50
2017-12-01T19:10:40.940Z,26.37
2017-12-01T19:13:08.092Z,27.83
2017-12-01T19:15:34.424Z,27.83
2017-12-01T19:18:00.858Z,29.83
2017-12-01T19:20:27.190Z,27.83
2017-12-01T19:22:53.626Z,28.30
2017-12-01T19:25:20.060Z,28.90
2017-12-01T19:27:46.499Z,26.57
2017-12-01T19:30:13.579Z,28.10
2017-12-01T19:32:39.977Z,30.13
2017-12-01T19:35:06.413Z,34.87
2017-12-01T19:37:32.847Z,29.20
2017-12-01T19:39:59.283Z,30.53
2017-12-01T19:42:25.716Z,33.10
2017-12-01T19:44:52.152Z,37.27
2017-12-01T19:47:19.288Z,33.00
2017-12-01T19:49:45.737Z,38.07
2017-12-01T19:52:12.070Z,39.27
2017-12-01T19:54:38.606Z,40.03
2017-12-01T19:57:05.041Z,49.70
2017-12-01T19:59:31.459Z,56.90
2017-12-01T20:01:57.911Z,85.30
2017-12-01T20:04:25.168Z,105.97
2017-12-01T20:06:51.533Z,63.87
2017-12-01T20:09:17.933Z,45.37
2017-12-01T20:11:44.367Z,69.17
2017-12-01T20:14:10.801Z,88.30
2017-12-01T20:16:37.167Z,87.80
2017-12-01T20:19:03.568Z,77.40
2017-12-01T20:21:30.825Z,89.70
2017-12-01T20:23:57.255Z,95.83
2017-12-01T20:26:23.700Z,245.30
2017-12-01T20:28:50.125Z,92.10
2017-12-01T20:31:16.617Z,163.67
2017-12-01T20:33:42.994Z,148.00
2017-12-01T20:36:09.326Z,119.30
2017-12-01T20:38:36.682Z,93.83
2017-12-01T20:41:03.118Z,255.23
2017-12-01T20:43:29.552Z,254.73
2017-12-01T20:45:56.645Z,208.03
2017-12-01T20:48:23.139Z,385.93
2017-12-01T20:50:49.573Z,172.57
2017-12-01T20:53:16.007Z,304.53
2017-12-01T20:55:42.443Z,265.33
2017-12-01T20:58:08.878Z,240.23
2017-12-01T21:00:35.313Z,238.67
2017-12-01T21:03:01.747Z,158.20
2017-12-01T21:05:28.078Z,170.17
2017-12-01T21:07:54.554Z,288.80
2017-12-01T21:10:20.886Z,300.20
2017-12-01T21:12:48.053Z,356.80
2017-12-01T21:15:14.533Z,283.20
2017-12-01T21:17:40.969Z,128.10
2017-12-01T21:20:07.404Z,129.40
2017-12-01T21:22:33.837Z,183.73
2017-12-01T21:25:00.169Z,161.10
2017-12-01T21:27:26.604Z,56.33
2017-12-01T21:29:53.755Z,121.10
2017-12-01T21:32:20.088Z,209.03
2017-12-01T21:34:46.420Z,243.20
2017-12-01T21:37:12.855Z,77.77
2017-12-01T21:39:39.295Z,89.00
2017-12-01T21:42:05.748Z,135.23
2017-12-01T21:44:32.159Z,154.37
2017-12-01T21:46:59.397Z,99.77
2017-12-01T21:49:25.827Z,179.80
2017-12-01T21:51:52.269Z,141.80
2017-12-01T21:54:18.753Z,178.23
2017-12-01T21:56:45.151Z,142.53
2017-12-01T21:59:11.605Z,56.30
2017-12-01T22:01:37.958Z,173.50
2017-12-01T22:04:05.179Z,184.30
2017-12-01T22:06:31.542Z,144.97
2017-12-01T22:08:57.938Z,197.93
2017-12-01T22:11:24.372Z,154.77
2017-12-01T22:13:50.811Z,67.30
2017-12-01T22:16:17.227Z,128.40
2017-12-01T22:18:43.699Z,52.23
2017-12-01T22:21:10.729Z,120.10
2017-12-01T22:23:37.162Z,116.90
2017-12-01T22:26:03.596Z,50.30
2017-12-01T22:28:30.066Z,74.53
2017-12-01T22:30:56.464Z,31.53
2017-12-01T22:33:22.899Z,25.10
2017-12-01T22:35:49.298Z,29.27
2017-12-01T22:38:16.627Z,24.20
2017-12-01T22:40:43.022Z,21.20
2017-12-01T22:43:09.393Z,23.17
2017-12-01T22:45:35.788Z,19.00
2017-12-01T22:48:02.223Z,18.80
2017-12-01T22:50:28.658Z,19.03
2017-12-01T22:52:55.092Z,19.07
2017-12-01T22:55:22.266Z,14.63
2017-12-01T22:57:48.681Z,14.20
2017-12-01T23:00:15.135Z,18.13
2017-12-01T23:02:41.548Z,19.30
2017-12-01T23:05:07.916Z,13.03
2017-12-01T23:07:34.519Z,16.33
2017-12-01T23:10:00.954Z,15.33
2017-12-01T23:12:28.037Z,13.33
2017-12-01T23:14:54.437Z,14.40
2017-12-01T23:17:20.877Z,11.60
2017-12-01T23:19:47.238Z,12.13
2017-12-01T23:22:13.641Z,14.00
2017-12-01T23:24:39.975Z,10.87
2017-12-01T23:27:06.406Z,11.43
2017-12-01T23:29:33.546Z,10.17
2017-12-01T23:31:59.992Z,8.03
2017-12-01T23:34:26.452Z,9.20
2017-12-01T23:36:52.861Z,9.60
2017-12-01T23:39:19.296Z,9.63
2017-12-01T23:41:45.731Z,11.90
2017-12-01T23:44:12.064Z,10.83
2017-12-01T23:46:39.247Z,8.97
2017-12-01T23:49:05.668Z,8.70
2017-12-01T23:51:32.085Z,7.50
2017-12-01T23:53:58.518Z,6.70
2017-12-01T23:56:24.953Z,6.20
2017-12-01T23:58:51.388Z,6.63
